createdAt,value
2018-07-16T00:00:58.743Z,97.33
2018-07-16T00:01:58.744Z,98.14
2018-07-16T00:02:58.745Z,97.95
2018-07-16T00:03:58.744Z,98.38
2018-07-16T00:04:58.746Z,98.38
2018-07-16T00:05:58.747Z,98.19
2018-07-16T00:06:58.746Z,98.19
2018-07-16T00:07:58.747Z,97.42
2018-07-16T00:08:58.749Z,97.71
2018-07-16T00:09:58.747Z,97.61
2018-07-16T00:10:58.749Z,97.61
2018-07-16T00:11:58.749Z,97.90
2018-07-16T00:12:58.749Z,98.10
2018-07-16T00:13:58.751Z,97.47
2018-07-16T00:14:58.751Z,97.90
2018-07-16T00:15:58.751Z,97.66
2018-07-16T00:16:58.752Z,97.47
2018-07-16T00:17:58.753Z,97.66
2018-07-16T00:18:58.754Z,97.95
2018-07-16T00:19:58.754Z,98.52
2018-07-16T00:20:58.755Z,98.05
2018-07-16T00:21:58.756Z,98.05
2018-07-16T00:22:58.756Z,98.14
2018-07-16T00:23:58.757Z,98.43
2018-07-16T00:24:58.756Z,99.10
2018-07-16T00:25:58.757Z,99.29
2018-07-16T00:26:58.759Z,98.91
2018-07-16T00:27:58.759Z,98.81
2018-07-16T00:28:58.759Z,98.24
2018-07-16T00:29:58.759Z,98.81
2018-07-16T00:30:58.761Z,98.24
2018-07-16T00:31:58.763Z,98.33
2018-07-16T00:32:58.763Z,98.62
2018-07-16T00:33:58.762Z,98.33
2018-07-16T00:34:58.765Z,98.24
2018-07-16T00:35:58.762Z,98.05
2018-07-16T00:36:58.764Z,98.52
2018-07-16T00:37:58.765Z,98.24
2018-07-16T00:38:58.765Z,98.14
2018-07-16T00:39:58.765Z,97.76
2018-07-16T00:40:58.766Z,97.76
2018-07-16T00:41:58.767Z,97.47
2018-07-16T00:42:58.767Z,97.66
2018-07-16T00:43:58.767Z,97.85
2018-07-16T00:44:58.769Z,97.76
2018-07-16T00:45:58.769Z,97.56
2018-07-16T00:46:58.769Z,97.76
2018-07-16T00:47:58.768Z,97.95
2018-07-16T00:48:58.769Z,97.95
2018-07-16T00:49:58.769Z,98.05
2018-07-16T00:50:58.772Z,98.52
2018-07-16T00:51:58.770Z,98.24
2018-07-16T00:52:58.770Z,98.43
2018-07-16T00:53:58.772Z,98.24
2018-07-16T00:54:58.773Z,98.81
2018-07-16T00:55:58.774Z,98.33
2018-07-16T00:56:58.773Z,98.33
2018-07-16T00:57:58.774Z,98.52
2018-07-16T00:58:58.774Z,98.52
2018-07-16T00:59:58.774Z,98.33
2018-07-16T01:00:58.774Z,99.01
2018-07-16T01:01:58.776Z,98.14
2018-07-16T01:02:58.777Z,98.05
2018-07-16T01:03:58.777Z,98.43
2018-07-16T01:04:58.777Z,98.24
2018-07-16T01:05:58.778Z,98.52
2018-07-16T01:06:58.778Z,97.85
2018-07-16T01:07:58.778Z,98.33
2018-07-16T01:08:58.778Z,98.43
2018-07-16T01:09:58.779Z,99.01
2018-07-16T01:10:58.778Z,99.10
2018-07-16T01:11:58.780Z,99.39
2018-07-16T01:12:58.781Z,99.10
2018-07-16T01:13:58.781Z,98.91
2018-07-16T01:14:58.781Z,98.81
2018-07-16T01:15:58.780Z,98.86
2018-07-16T01:16:58.781Z,99.19
2018-07-16T01:17:58.781Z,99.48
2018-07-16T01:18:58.783Z,99.10
2018-07-16T01:19:58.781Z,99.10
2018-07-16T01:20:58.781Z,99.58
2018-07-16T01:21:58.783Z,99.34
2018-07-16T01:22:58.785Z,99.58
2018-07-16T01:23:58.783Z,99.63
2018-07-16T01:24:58.787Z,99.24
2018-07-16T01:25:58.785Z,99.53
2018-07-16T01:26:58.784Z,99.99
2018-07-16T01:27:58.784Z,99.91
2018-07-16T01:28:58.784Z,99.72
2018-07-16T01:29:58.786Z,99.34
2018-07-16T01:30:58.785Z,99.72
2018-07-16T01:31:58.784Z,99.91
2018-07-16T01:32:58.786Z,99.99
2018-07-16T01:33:58.787Z,99.63
2018-07-16T01:34:58.787Z,99.63
2018-07-16T01:35:58.786Z,99.34
2018-07-16T01:36:58.787Z,99.43
2018-07-16T01:37:58.788Z,99.99
2018-07-16T01:38:58.788Z,99.91
2018-07-16T01:39:58.788Z,99.63
2018-07-16T01:40:58.787Z,99.99
2018-07-16T01:41:58.788Z,99.99
2018-07-16T01:42:58.790Z,99.99
2018-07-16T01:43:58.790Z,99.99
2018-07-16T01:44:58.793Z,99.99
2018-07-16T01:45:58.790Z,99.99
2018-07-16T01:46:58.789Z,99.99
2018-07-16T01:47:58.789Z,99.99
2018-07-16T01:48:58.794Z,99.99
2018-07-16T01:49:58.792Z,99.99
2018-07-16T01:50:58.791Z,99.99
2018-07-16T01:51:58.791Z,99.99
2018-07-16T01:52:58.790Z,99.99
2018-07-16T01:53:58.792Z,99.99
2018-07-16T01:54:58.792Z,99.53
2018-07-16T01:55:58.796Z,99.53
2018-07-16T01:56:58.793Z,99.15
2018-07-16T01:57:58.793Z,98.86
2018-07-16T01:58:58.794Z,99.15
2018-07-16T01:59:58.793Z,99.24
2018-07-16T02:00:58.793Z,98.96
2018-07-16T02:01:58.794Z,98.81
2018-07-16T02:02:58.794Z,99.10
2018-07-16T02:03:58.794Z,99.24
2018-07-16T02:04:58.794Z,99.10
2018-07-16T02:05:58.795Z,99.19
2018-07-16T02:06:58.795Z,99.34
2018-07-16T02:07:58.795Z,99.10
2018-07-16T02:08:58.794Z,99.24
2018-07-16T02:09:58.795Z,99.15
2018-07-16T02:10:58.796Z,99.53
2018-07-16T02:11:58.796Z,99.99
2018-07-16T02:12:58.795Z,99.43
2018-07-16T02:13:58.797Z,99.63
2018-07-16T02:14:58.798Z,99.63
2018-07-16T02:15:58.797Z,99.63
2018-07-16T02:16:58.797Z,99.24
2018-07-16T02:17:58.798Z,99.63
2018-07-16T02:18:58.797Z,99.63
2018-07-16T02:19:58.797Z,99.72
2018-07-16T02:20:58.797Z,99.53
2018-07-16T02:21:58.799Z,99.24
2018-07-16T02:22:58.800Z,99.53
2018-07-16T02:23:58.798Z,99.24
2018-07-16T02:24:58.799Z,99.63
2018-07-16T02:25:58.799Z,99.91
2018-07-16T02:26:58.800Z,99.99
2018-07-16T02:27:58.798Z,99.91
2018-07-16T02:28:58.798Z,99.91
2018-07-16T02:29:58.800Z,99.99
2018-07-16T02:30:58.799Z,99.63
2018-07-16T02:31:58.802Z,99.99
2018-07-16T02:32:58.799Z,99.99
2018-07-16T02:33:58.804Z,99.99
2018-07-16T02:34:58.800Z,99.99
2018-07-16T02:35:58.799Z,99.99
2018-07-16T02:36:58.800Z,99.99
2018-07-16T02:37:58.802Z,99.99
2018-07-16T02:38:58.800Z,99.99
2018-07-16T02:39:58.800Z,99.99
2018-07-16T02:40:58.804Z,99.99
2018-07-16T02:41:58.801Z,99.99
2018-07-16T02:42:58.803Z,99.99
2018-07-16T02:43:58.801Z,99.99
2018-07-16T02:44:58.799Z,99.99
2018-07-16T02:45:58.802Z,99.99
2018-07-16T02:46:58.802Z,99.99
2018-07-16T02:47:58.800Z,99.99
2018-07-16T02:48:58.800Z,99.43
2018-07-16T02:49:58.800Z,99.99
2018-07-16T02:50:58.807Z,99.43
2018-07-16T02:51:58.803Z,99.91
2018-07-16T02:52:58.803Z,99.82
2018-07-16T02:53:58.801Z,99.72
2018-07-16T02:54:58.804Z,99.99
2018-07-16T02:55:58.801Z,99.99
2018-07-16T02:56:58.801Z,99.99
2018-07-16T02:57:58.801Z,99.99
2018-07-16T02:58:58.801Z,99.99
2018-07-16T02:59:58.801Z,99.99
2018-07-16T03:00:58.801Z,99.99
2018-07-16T03:01:58.802Z,99.99
2018-07-16T03:02:58.802Z,99.99
2018-07-16T03:03:58.800Z,99.99
2018-07-16T03:04:58.801Z,99.99
2018-07-16T03:05:58.801Z,99.99
2018-07-16T03:06:58.802Z,99.99
2018-07-16T03:07:58.802Z,99.99
2018-07-16T03:08:58.800Z,99.99
2018-07-16T03:09:58.802Z,99.99
2018-07-16T03:10:58.802Z,99.99
2018-07-16T03:11:58.800Z,99.99
2018-07-16T03:12:58.801Z,99.99
2018-07-16T03:13:58.804Z,99.99
2018-07-16T03:14:58.801Z,99.99
2018-07-16T03:15:58.800Z,99.99
2018-07-16T03:16:58.801Z,99.99
2018-07-16T03:17:58.821Z,99.99
2018-07-16T03:18:58.800Z,99.99
2018-07-16T03:19:58.800Z,99.99
2018-07-16T03:20:58.800Z,99.99
2018-07-16T03:21:58.801Z,99.99
2018-07-16T03:22:58.801Z,99.99
2018-07-16T03:23:58.807Z,99.99
2018-07-16T03:24:58.800Z,99.99
2018-07-16T03:25:58.800Z,99.99
2018-07-16T03:26:58.801Z,99.99
2018-07-16T03:27:58.801Z,99.99
2018-07-16T03:28:58.800Z,99.99
2018-07-16T03:29:58.801Z,99.99
2018-07-16T03:30:58.800Z,99.99
2018-07-16T03:31:58.801Z,99.99
2018-07-16T03:32:58.799Z,99.99
2018-07-16T03:33:58.801Z,99.99
2018-07-16T03:34:58.801Z,99.99
2018-07-16T03:35:58.798Z,99.99
2018-07-16T03:36:58.800Z,99.99
2018-07-16T03:37:58.799Z,99.99
2018-07-16T03:38:58.802Z,99.99
2018-07-16T03:39:58.800Z,99.99
2018-07-16T03:40:58.800Z,99.99
2018-07-16T03:41:58.799Z,99.99
2018-07-16T03:42:58.799Z,99.99
2018-07-16T03:43:58.799Z,99.99
2018-07-16T03:44:58.798Z,99.99
2018-07-16T03:45:58.800Z,99.99
2018-07-16T03:46:58.800Z,99.99
2018-07-16T03:47:58.862Z,99.99
2018-07-16T03:48:58.799Z,99.99
2018-07-16T03:49:58.801Z,99.99
2018-07-16T03:50:58.799Z,99.99
2018-07-16T03:51:58.798Z,99.99
2018-07-16T03:52:58.799Z,99.99
2018-07-16T03:53:58.799Z,99.99
2018-07-16T03:54:58.836Z,99.99
2018-07-16T03:55:58.884Z,99.99
2018-07-16T03:56:58.799Z,99.99
2018-07-16T03:57:58.799Z,99.99
2018-07-16T03:58:58.798Z,99.99
2018-07-16T03:59:58.803Z,99.99
2018-07-16T04:00:58.799Z,99.99
2018-07-16T04:01:58.798Z,99.99
2018-07-16T04:02:58.809Z,99.99
2018-07-16T04:03:58.797Z,99.99
2018-07-16T04:04:58.798Z,99.99
2018-07-16T04:05:58.799Z,99.99
2018-07-16T04:06:58.798Z,99.99
2018-07-16T04:07:58.805Z,99.99
2018-07-16T04:08:58.798Z,99.99
2018-07-16T04:09:58.805Z,99.99
2018-07-16T04:10:58.800Z,99.99
2018-07-16T04:11:58.804Z,99.99
2018-07-16T04:12:58.802Z,99.99
2018-07-16T04:13:58.802Z,99.99
2018-07-16T04:14:58.801Z,99.99
2018-07-16T04:15:58.804Z,99.99
2018-07-16T04:16:58.803Z,99.99
2018-07-16T04:17:58.798Z,99.99
2018-07-16T04:18:58.798Z,99.99
2018-07-16T04:19:58.800Z,99.99
2018-07-16T04:20:58.802Z,99.99
2018-07-16T04:21:58.798Z,99.99
2018-07-16T04:22:58.800Z,99.99
2018-07-16T04:23:58.798Z,99.99
2018-07-16T04:24:58.797Z,99.99
2018-07-16T04:25:58.801Z,99.99
2018-07-16T04:26:58.800Z,99.99
2018-07-16T04:27:58.797Z,99.99
2018-07-16T04:28:58.798Z,99.99
2018-07-16T04:29:58.799Z,99.99
2018-07-16T04:30:58.831Z,99.99
2018-07-16T04:31:58.799Z,99.99
2018-07-16T04:32:58.799Z,99.99
2018-07-16T04:33:58.799Z,99.99
2018-07-16T04:34:58.800Z,99.99
2018-07-16T04:35:58.798Z,99.99
2018-07-16T04:36:58.799Z,99.99
2018-07-16T04:37:58.800Z,99.99
2018-07-16T04:38:58.798Z,99.99
2018-07-16T04:39:58.875Z,99.99
2018-07-16T04:40:58.799Z,99.99
2018-07-16T04:41:58.799Z,99.99
2018-07-16T04:42:58.799Z,99.99
2018-07-16T04:43:58.799Z,99.99
2018-07-16T04:44:58.799Z,99.99
2018-07-16T04:45:58.802Z,99.99
2018-07-16T04:46:58.800Z,99.99
2018-07-16T04:47:58.799Z,99.99
2018-07-16T04:48:58.802Z,99.99
2018-07-16T04:49:58.800Z,99.99
2018-07-16T04:50:58.800Z,99.99
2018-07-16T04:51:58.800Z,99.99
2018-07-16T04:52:58.803Z,99.99
2018-07-16T04:53:58.801Z,99.99
2018-07-16T04:54:58.801Z,99.99
2018-07-16T04:55:58.800Z,99.99
2018-07-16T04:56:58.800Z,99.99
2018-07-16T04:57:58.799Z,99.99
2018-07-16T04:58:58.801Z,99.99
2018-07-16T04:59:58.800Z,99.99
2018-07-16T05:00:58.801Z,99.99
2018-07-16T05:01:58.801Z,99.99
2018-07-16T05:02:58.801Z,99.99
2018-07-16T05:03:58.800Z,99.99
2018-07-16T05:04:58.804Z,99.99
2018-07-16T05:05:58.804Z,99.99
2018-07-16T05:06:58.803Z,99.99
2018-07-16T05:07:58.800Z,99.99
2018-07-16T05:08:58.801Z,99.99
2018-07-16T05:09:58.800Z,99.99
2018-07-16T05:10:58.802Z,99.99
2018-07-16T05:11:58.801Z,99.99
2018-07-16T05:12:58.802Z,99.99
2018-07-16T05:13:58.802Z,99.99
2018-07-16T05:14:58.802Z,99.99
2018-07-16T05:15:58.802Z,99.99
2018-07-16T05:16:58.801Z,99.99
2018-07-16T05:17:58.876Z,99.99
2018-07-16T05:18:58.803Z,99.99
2018-07-16T05:19:58.803Z,99.99
2018-07-16T05:20:58.802Z,99.99
2018-07-16T05:21:58.803Z,99.99
2018-07-16T05:22:58.804Z,99.99
2018-07-16T05:23:58.809Z,99.99
2018-07-16T05:24:58.802Z,99.99
2018-07-16T05:25:58.836Z,99.99
2018-07-16T05:26:58.878Z,99.99
2018-07-16T05:27:58.803Z,99.99
2018-07-16T05:28:58.824Z,99.99
2018-07-16T05:29:58.921Z,99.99
2018-07-16T05:30:58.872Z,99.99
2018-07-16T05:31:58.865Z,99.99
2018-07-16T05:32:58.805Z,99.99
2018-07-16T05:33:58.804Z,99.99
2018-07-16T05:34:58.805Z,99.99
2018-07-16T05:35:58.804Z,99.99
2018-07-16T05:36:58.805Z,99.99
2018-07-16T05:37:58.911Z,99.99
2018-07-16T05:38:58.804Z,99.99
2018-07-16T05:39:58.807Z,99.99
2018-07-16T05:40:58.805Z,99.99
2018-07-16T05:41:58.805Z,99.99
2018-07-16T05:42:58.807Z,99.99
2018-07-16T05:43:58.926Z,99.99
2018-07-16T05:44:59.289Z,99.99
2018-07-16T05:45:58.806Z,99.99
2018-07-16T05:46:58.807Z,99.99
2018-07-16T05:47:58.805Z,99.99
2018-07-16T05:48:58.806Z,99.99
2018-07-16T05:49:58.806Z,99.99
2018-07-16T05:50:58.807Z,99.99
2018-07-16T05:51:58.805Z,99.99
2018-07-16T05:52:58.806Z,99.99
2018-07-16T05:53:58.807Z,99.99
2018-07-16T05:54:58.810Z,99.99
2018-07-16T05:55:58.807Z,99.99
2018-07-16T05:56:58.806Z,99.99
2018-07-16T05:57:58.806Z,99.99
2018-07-16T05:58:58.807Z,99.99
2018-07-16T05:59:58.806Z,99.99
2018-07-16T06:00:58.807Z,99.99
2018-07-16T06:01:58.808Z,99.99
2018-07-16T06:02:58.809Z,99.99
2018-07-16T06:03:58.907Z,99.99
2018-07-16T06:04:58.841Z,99.99
2018-07-16T06:05:58.838Z,99.99
2018-07-16T06:06:58.808Z,99.99
2018-07-16T06:07:58.828Z,99.99
2018-07-16T06:08:58.828Z,99.99
2018-07-16T06:09:58.808Z,99.99
2018-07-16T06:10:58.807Z,99.99
2018-07-16T06:11:58.808Z,99.99
2018-07-16T06:12:58.809Z,99.99
2018-07-16T06:13:58.808Z,99.99
2018-07-16T06:14:58.808Z,99.99
2018-07-16T06:15:58.808Z,99.99
2018-07-16T06:16:58.809Z,99.99
2018-07-16T06:17:58.809Z,99.99
2018-07-16T06:18:58.810Z,99.99
2018-07-16T06:19:58.809Z,99.99
2018-07-16T06:20:58.809Z,99.99
2018-07-16T06:21:58.810Z,99.99
2018-07-16T06:22:58.810Z,99.99
2018-07-16T06:23:58.861Z,99.99
2018-07-16T06:24:58.812Z,99.99
2018-07-16T06:25:58.811Z,99.99
2018-07-16T06:26:58.812Z,99.99
2018-07-16T06:27:58.811Z,99.99
2018-07-16T06:28:58.827Z,99.99
2018-07-16T06:29:58.812Z,99.99
2018-07-16T06:30:58.813Z,99.99
2018-07-16T06:31:58.813Z,99.99
2018-07-16T06:32:58.814Z,99.99
2018-07-16T06:33:58.815Z,99.99
2018-07-16T06:34:58.814Z,99.99
2018-07-16T06:35:59.140Z,99.99
2018-07-16T06:36:58.815Z,99.99
2018-07-16T06:37:58.816Z,99.99
2018-07-16T06:38:58.818Z,99.99
2018-07-16T06:39:58.896Z,99.99
2018-07-16T06:40:58.970Z,99.99
2018-07-16T06:41:58.819Z,99.99
2018-07-16T06:42:58.820Z,99.99
2018-07-16T06:43:58.820Z,99.99
2018-07-16T06:44:58.821Z,99.99
2018-07-16T06:45:58.822Z,99.99
2018-07-16T06:46:58.824Z,99.99
2018-07-16T06:47:58.823Z,99.99
2018-07-16T06:48:58.860Z,99.99
2018-07-16T06:49:58.827Z,99.99
2018-07-16T06:50:58.835Z,99.99
2018-07-16T06:51:58.830Z,99.99
2018-07-16T06:52:58.829Z,99.99
2018-07-16T06:53:58.829Z,99.99
2018-07-16T06:54:58.885Z,99.99
2018-07-16T06:55:58.832Z,99.99
2018-07-16T06:56:58.834Z,99.99
2018-07-16T06:57:58.835Z,99.99
2018-07-16T06:58:58.835Z,99.99
2018-07-16T06:59:58.835Z,99.99
2018-07-16T07:00:58.837Z,99.99
2018-07-16T07:01:58.838Z,99.99
2018-07-16T07:02:58.839Z,99.99
2018-07-16T07:03:58.914Z,99.99
2018-07-16T07:04:58.840Z,99.99
2018-07-16T07:05:58.842Z,99.99
2018-07-16T07:06:58.850Z,99.99
2018-07-16T07:07:59.053Z,99.99
2018-07-16T07:08:58.845Z,99.99
2018-07-16T07:09:58.857Z,99.99
2018-07-16T07:10:58.848Z,99.01
2018-07-16T07:11:58.915Z,98.14
2018-07-16T07:12:58.849Z,97.96
2018-07-16T07:13:58.854Z,97.38
2018-07-16T07:14:58.854Z,98.43
2018-07-16T07:15:58.854Z,98.63
2018-07-16T07:16:58.857Z,95.65
2018-07-16T07:17:58.857Z,94.98
2018-07-16T07:18:59.157Z,96.70
2018-07-16T07:19:58.861Z,96.42
2018-07-16T07:20:58.862Z,96.32
2018-07-16T07:21:58.866Z,96.32
2018-07-16T07:22:58.869Z,96.47
2018-07-16T07:23:58.868Z,96.47
2018-07-16T07:24:58.870Z,96.37
2018-07-16T07:25:58.872Z,94.93
2018-07-16T07:26:58.875Z,95.12
2018-07-16T07:27:58.877Z,96.32
2018-07-16T07:28:58.881Z,92.86
2018-07-16T07:29:58.881Z,91.80
2018-07-16T07:30:58.886Z,93.10
2018-07-16T07:31:58.886Z,91.60
2018-07-16T07:32:58.890Z,89.49
2018-07-16T07:33:58.892Z,89.82
2018-07-16T07:34:58.963Z,90.40
2018-07-16T07:35:58.989Z,88.67
2018-07-16T07:36:58.904Z,89.92
2018-07-16T07:37:58.911Z,89.92
2018-07-16T07:38:58.916Z,88.76
2018-07-16T07:39:58.920Z,90.93
2018-07-16T07:40:58.946Z,90.83
2018-07-16T07:41:58.931Z,92.43
2018-07-16T07:42:58.935Z,92.71
2018-07-16T07:43:58.938Z,92.52
2018-07-16T07:44:58.944Z,93.48
2018-07-16T07:45:58.949Z,92.43
2018-07-16T07:46:58.953Z,92.66
2018-07-16T07:47:58.957Z,91.55
2018-07-16T07:48:58.960Z,89.67
2018-07-16T07:49:58.965Z,87.30
2018-07-16T07:50:58.971Z,84.42
2018-07-16T07:51:58.974Z,84.61
2018-07-16T07:52:58.979Z,85.57
2018-07-16T07:53:59.256Z,85.28
2018-07-16T07:54:59.172Z,84.76
2018-07-16T07:55:58.992Z,86.11
2018-07-16T07:56:58.997Z,86.40
2018-07-16T07:57:59.142Z,86.07
2018-07-16T07:58:59.007Z,88.38
2018-07-16T07:59:59.010Z,89.09
2018-07-16T08:00:59.315Z,88.90
2018-07-16T08:01:59.021Z,89.04
2018-07-16T08:02:59.026Z,85.57
2018-07-16T08:03:59.032Z,82.92
2018-07-16T08:04:59.039Z,83.16
2018-07-16T08:05:59.049Z,84.52
2018-07-16T08:06:59.049Z,83.36
2018-07-16T08:07:59.056Z,84.42
2018-07-16T08:08:59.061Z,84.70
2018-07-16T08:09:59.068Z,85.67
2018-07-16T08:10:59.073Z,86.63
2018-07-16T08:11:59.078Z,84.90
2018-07-16T08:12:59.084Z,84.12
2018-07-16T08:13:59.092Z,84.12
2018-07-16T08:14:59.327Z,83.99
2018-07-16T08:15:59.100Z,84.09
2018-07-16T08:16:59.186Z,84.12
2018-07-16T08:17:59.224Z,83.55
2018-07-16T08:18:59.212Z,83.45
2018-07-16T08:19:59.177Z,83.36
2018-07-16T08:20:59.147Z,82.78
2018-07-16T08:21:59.135Z,80.89
2018-07-16T08:22:59.140Z,80.49
2018-07-16T08:23:59.147Z,79.91
2018-07-16T08:24:59.152Z,76.68
2018-07-16T08:25:59.160Z,75.95
2018-07-16T08:26:59.169Z,74.73
2018-07-16T08:27:59.215Z,73.80
2018-07-16T08:28:59.182Z,73.90
2018-07-16T08:29:59.190Z,72.42
2018-07-16T08:30:59.202Z,71.30
2018-07-16T08:31:59.211Z,69.11
2018-07-16T08:32:59.217Z,65.69
2018-07-16T08:33:59.306Z,68.40
2018-07-16T08:34:59.239Z,68.40
2018-07-16T08:35:59.249Z,69.17
2018-07-16T08:36:59.261Z,67.56
2018-07-16T08:37:59.271Z,64.98
2018-07-16T08:38:59.340Z,64.82
2018-07-16T08:39:59.294Z,63.27
2018-07-16T08:40:59.308Z,63.43
2018-07-16T08:41:59.320Z,64.50
2018-07-16T08:42:59.332Z,64.98
2018-07-16T08:43:59.342Z,65.50
2018-07-16T08:44:59.357Z,63.01
2018-07-16T08:45:59.370Z,60.55
2018-07-16T08:46:59.508Z,58.73
2018-07-16T08:47:59.396Z,56.98
2018-07-16T08:48:59.408Z,57.70
2018-07-16T08:49:59.423Z,59.52
2018-07-16T08:50:59.438Z,61.85
2018-07-16T08:51:59.505Z,62.98
2018-07-16T08:52:59.464Z,62.52
2018-07-16T08:53:59.476Z,60.81
2018-07-16T08:54:59.492Z,58.58
2018-07-16T08:55:59.505Z,60.58
2018-07-16T08:56:59.520Z,59.33
2018-07-16T08:57:59.533Z,59.61
2018-07-16T08:58:59.546Z,58.00
2018-07-16T08:59:59.560Z,57.64
2018-07-16T09:00:59.575Z,58.15
2018-07-16T09:01:59.590Z,56.35
2018-07-16T09:02:59.604Z,56.54
2018-07-16T09:03:59.672Z,56.89
2018-07-16T09:04:59.632Z,55.17
2018-07-16T09:05:59.647Z,52.79
2018-07-16T09:06:59.663Z,52.01
2018-07-16T09:07:59.675Z,52.67
2018-07-16T09:08:59.690Z,54.80
2018-07-16T09:09:59.702Z,56.72
2018-07-16T09:10:59.754Z,57.44
2018-07-16T09:11:59.729Z,57.15
2018-07-16T09:12:59.741Z,59.64
2018-07-16T09:13:59.760Z,63.88
2018-07-16T09:14:59.769Z,62.30
2018-07-16T09:15:59.781Z,63.43
2018-07-16T09:16:59.831Z,63.49
2018-07-16T09:17:59.803Z,65.24
2018-07-16T09:18:59.815Z,67.37
2018-07-16T09:19:59.832Z,64.07
2018-07-16T09:20:59.838Z,63.53
2018-07-16T09:21:59.852Z,65.79
2018-07-16T09:22:59.860Z,63.14
2018-07-16T09:23:59.871Z,64.56
2018-07-16T09:24:59.882Z,67.08
2018-07-16T09:26:00.186Z,63.72
2018-07-16T09:26:59.906Z,63.34
2018-07-16T09:27:59.915Z,64.11
2018-07-16T09:28:59.928Z,63.49
2018-07-16T09:29:59.938Z,65.53
2018-07-16T09:30:59.948Z,66.63
2018-07-16T09:31:59.960Z,65.20
2018-07-16T09:33:00.519Z,63.85
2018-07-16T09:34:00.036Z,63.65
2018-07-16T09:34:59.998Z,63.59
2018-07-16T09:36:00.224Z,64.56
2018-07-16T09:37:00.021Z,61.72
2018-07-16T09:38:00.033Z,63.53
2018-07-16T09:39:00.061Z,64.72
2018-07-16T09:40:00.264Z,62.69
2018-07-16T09:41:00.067Z,62.30
2018-07-16T09:42:00.080Z,61.85
2018-07-16T09:43:00.088Z,64.07
2018-07-16T09:44:00.108Z,67.40
2018-07-16T09:45:00.115Z,62.68
2018-07-16T09:46:00.125Z,63.59
2018-07-16T09:47:00.472Z,59.70
2018-07-16T09:48:00.148Z,57.64
2018-07-16T09:49:00.162Z,60.55
2018-07-16T09:50:00.227Z,61.07
2018-07-16T09:51:00.188Z,61.07
2018-07-16T09:52:00.198Z,58.67
2018-07-16T09:53:00.212Z,61.65
2018-07-16T09:54:00.521Z,60.75
2018-07-16T09:55:00.238Z,62.20
2018-07-16T09:56:00.292Z,62.82
2018-07-16T09:57:00.718Z,62.04
2018-07-16T09:58:00.277Z,60.91
2018-07-16T09:59:00.289Z,61.29
2018-07-16T10:00:00.415Z,63.88
2018-07-16T10:01:00.318Z,65.47
2018-07-16T10:02:00.491Z,61.90
2018-07-16T10:03:00.343Z,58.43
2018-07-16T10:04:00.416Z,60.79
2018-07-16T10:05:00.576Z,58.43
2018-07-16T10:06:00.380Z,57.68
2018-07-16T10:07:00.749Z,55.25
2018-07-16T10:08:00.466Z,56.74
2018-07-16T10:09:00.451Z,57.42
2018-07-16T10:10:00.514Z,56.64
2018-07-16T10:11:00.445Z,54.28
2018-07-16T10:12:00.458Z,54.74
2018-07-16T10:13:00.468Z,55.24
2018-07-16T10:14:00.483Z,55.89
2018-07-16T10:15:00.498Z,56.37
2018-07-16T10:16:00.509Z,57.09
2018-07-16T10:17:00.565Z,57.19
2018-07-16T10:18:00.535Z,59.42
2018-07-16T10:19:00.549Z,58.77
2018-07-16T10:20:00.561Z,57.44
2018-07-16T10:21:00.573Z,59.41
2018-07-16T10:22:00.590Z,57.60
2018-07-16T10:23:00.599Z,58.79
2018-07-16T10:24:00.616Z,57.46
2018-07-16T10:25:00.625Z,57.36
2018-07-16T10:26:00.637Z,53.64
2018-07-16T10:27:00.649Z,54.20
2018-07-16T10:28:00.661Z,53.78
2018-07-16T10:29:00.673Z,55.99
2018-07-16T10:30:00.686Z,55.69
2018-07-16T10:31:00.699Z,55.67
2018-07-16T10:32:00.711Z,56.51
2018-07-16T10:33:00.724Z,57.61
2018-07-16T10:34:00.844Z,57.97
2018-07-16T10:35:00.749Z,57.00
2018-07-16T10:36:00.760Z,57.19
2018-07-16T10:37:00.775Z,58.39
2018-07-16T10:38:00.786Z,62.39
2018-07-16T10:39:00.796Z,55.43
2018-07-16T10:40:00.807Z,56.34
2018-07-16T10:41:00.819Z,54.71
2018-07-16T10:42:00.832Z,52.76
2018-07-16T10:43:00.842Z,54.27
2018-07-16T10:44:00.854Z,54.14
2018-07-16T10:45:00.867Z,53.63
2018-07-16T10:46:00.878Z,54.41
2018-07-16T10:47:00.890Z,55.77
2018-07-16T10:48:00.902Z,56.93
2018-07-16T10:49:00.916Z,56.23
2018-07-16T10:50:00.925Z,56.81
2018-07-16T10:51:00.937Z,59.38
2018-07-16T10:52:00.948Z,56.79
2018-07-16T10:53:00.959Z,55.73
2018-07-16T10:54:00.970Z,54.53
2018-07-16T10:55:00.985Z,55.04
2018-07-16T10:56:00.993Z,57.53
2018-07-16T10:57:01.005Z,53.52
2018-07-16T10:58:01.016Z,53.61
2018-07-16T10:59:01.028Z,58.95
2018-07-16T11:00:01.038Z,58.76
2018-07-16T11:01:01.105Z,58.50
2018-07-16T11:02:01.121Z,59.67
2018-07-16T11:03:01.124Z,53.83
2018-07-16T11:04:01.087Z,54.74
2018-07-16T11:05:01.097Z,51.99
2018-07-16T11:06:01.108Z,53.71
2018-07-16T11:07:01.127Z,56.65
2018-07-16T11:08:01.134Z,54.49
2018-07-16T11:09:01.142Z,53.56
2018-07-16T11:10:01.156Z,53.47
2018-07-16T11:11:01.167Z,58.64
2018-07-16T11:12:01.177Z,55.17
2018-07-16T11:13:01.189Z,58.62
2018-07-16T11:14:01.199Z,56.10
2018-07-16T11:15:01.260Z,56.71
2018-07-16T11:16:01.223Z,56.64
2018-07-16T11:17:01.238Z,53.69
2018-07-16T11:18:01.246Z,54.47
2018-07-16T11:19:01.259Z,55.47
2018-07-16T11:20:01.270Z,52.67
2018-07-16T11:21:01.374Z,53.81
2018-07-16T11:22:01.295Z,55.57
2018-07-16T11:23:01.305Z,54.91
2018-07-16T11:24:01.319Z,52.77
2018-07-16T11:25:01.329Z,51.61
2018-07-16T11:26:01.341Z,50.43
2018-07-16T11:27:01.353Z,49.32
2018-07-16T11:28:01.366Z,50.56
2018-07-16T11:29:01.380Z,51.77
2018-07-16T11:30:01.388Z,54.27
2018-07-16T11:31:01.402Z,55.79
2018-07-16T11:32:02.365Z,54.11
2018-07-16T11:33:01.677Z,54.41
2018-07-16T11:34:01.543Z,56.05
2018-07-16T11:35:01.879Z,56.47
2018-07-16T11:36:01.458Z,56.25
2018-07-16T11:37:01.470Z,56.05
2018-07-16T11:38:01.480Z,55.57
2018-07-16T11:39:01.495Z,55.28
2018-07-16T11:40:01.503Z,56.86
2018-07-16T11:41:01.514Z,57.25
2018-07-16T11:42:01.785Z,56.37
2018-07-16T11:43:01.826Z,54.92
2018-07-16T11:44:01.826Z,55.31
2018-07-16T11:45:02.062Z,55.50
2018-07-16T11:46:01.625Z,55.24
2018-07-16T11:47:01.579Z,54.44
2018-07-16T11:48:01.589Z,55.38
2018-07-16T11:49:01.662Z,55.87
2018-07-16T11:50:01.611Z,54.99
2018-07-16T11:51:01.938Z,54.02
2018-07-16T11:52:02.440Z,55.96
2018-07-16T11:53:01.931Z,55.93
2018-07-16T11:54:01.946Z,58.26
2018-07-16T11:55:01.664Z,55.57
2018-07-16T11:56:02.005Z,56.28
2018-07-16T11:57:01.896Z,55.63
2018-07-16T11:58:01.989Z,53.49
2018-07-16T11:59:01.800Z,54.97
2018-07-16T12:00:01.710Z,53.54
2018-07-16T12:01:01.774Z,52.67
2018-07-16T12:02:01.732Z,52.03
2018-07-16T12:03:01.741Z,53.47
2018-07-16T12:04:01.807Z,55.69
2018-07-16T12:05:01.769Z,55.08
2018-07-16T12:06:01.769Z,55.06
2018-07-16T12:07:02.023Z,56.00
2018-07-16T12:08:02.029Z,57.36
2018-07-16T12:09:02.093Z,57.62
2018-07-16T12:10:02.054Z,57.23
2018-07-16T12:11:02.095Z,60.17
2018-07-16T12:12:02.100Z,60.55
2018-07-16T12:13:02.012Z,57.23
2018-07-16T12:14:02.072Z,56.94
2018-07-16T12:15:02.376Z,60.43
2018-07-16T12:16:02.129Z,61.49
2018-07-16T12:17:02.105Z,59.43
2018-07-16T12:18:02.181Z,61.08
2018-07-16T12:19:01.992Z,61.46
2018-07-16T12:20:02.097Z,57.53
2018-07-16T12:21:02.006Z,57.11
2018-07-16T12:22:02.115Z,57.20
2018-07-16T12:23:02.135Z,58.27
2018-07-16T12:24:02.461Z,58.07
2018-07-16T12:25:02.065Z,63.49
2018-07-16T12:26:02.242Z,66.02
2018-07-16T12:27:02.151Z,63.21
2018-07-16T12:28:02.241Z,63.11
2018-07-16T12:29:02.247Z,64.95
2018-07-16T12:30:02.182Z,63.31
2018-07-16T12:31:02.175Z,62.92
2018-07-16T12:32:02.221Z,62.92
2018-07-16T12:33:02.200Z,58.78
2018-07-16T12:34:02.071Z,59.05
2018-07-16T12:35:02.113Z,58.01
2018-07-16T12:36:02.183Z,57.55
2018-07-16T12:37:02.406Z,56.20
2018-07-16T12:38:02.201Z,58.36
2018-07-16T12:39:02.258Z,55.74
2018-07-16T12:40:02.161Z,57.42
2018-07-16T12:41:02.025Z,61.22
2018-07-16T12:42:02.031Z,63.39
2018-07-16T12:43:02.039Z,61.29
2018-07-16T12:44:02.046Z,58.95
2018-07-16T12:45:02.461Z,59.15
2018-07-16T12:46:02.300Z,51.97
2018-07-16T12:47:02.168Z,52.62
2018-07-16T12:48:02.279Z,54.75
2018-07-16T12:49:02.219Z,53.61
2018-07-16T12:50:02.095Z,53.10
2018-07-16T12:51:02.143Z,52.91
2018-07-16T12:52:02.421Z,52.59
2018-07-16T12:53:02.122Z,52.59